Flight Track Log - Related Links

Times and Time Zones

All times are in EST time to prevent confusion due to time zone crossing. See the SKW7367 flight status page for this flight to view local times or setup timezone preferences in your user account.


Time Position Orientation Groundspeed Altitude Reporting Facility
EST Latitude Longitude Course Direction KTS MPH feet Rate Location/Type
Mon 04:04:58 PM 42.2106 -83.3650 North 157 181 1,200  Level Cleveland Center
Mon 04:06:17 PM 42.1622 -83.4200 220° Southwest 195 224 5,000 2,889 Climbing Cleveland Center
Mon 04:07:13 PM 42.1711 -83.4783 282° West 198 228 7,700 3,049 Climbing Cleveland Center
Mon 04:07:18 PM 42.1736 -83.4864 293° West 195 224 8,100 2,226 Climbing Cleveland Center
Mon 04:08:00 PM 42.5353 -83.3757 North  Level Estimated
Mon 04:08:15 PM 42.1950 -83.5486 295° West 202 232 10,000  Level Cleveland Center
Mon 04:08:19 PM 42.1994 -83.5578 303° West 223 257 10,100 97 Climbing Cleveland Center
Mon 04:09:00 PM 42.6160 -83.3814 North  Level Estimated
Mon 04:09:17 PM 42.2594 -83.5864 341° North 246 283 10,100  Level Cleveland Center
Mon 04:09:20 PM 42.2678 -83.5931 329° Northwest 247 284 10,100 581 Level Cleveland Center
Mon 04:10:00 PM 42.6968 -83.3787 North  Level FlightAware Approximate
Mon 04:10:19 PM 42.3283 -83.5939 359° North 262 302 10,700  Level Cleveland Center
Mon 04:10:21 PM 42.3372 -83.5919 North 279 321 11,100 2,419 Climbing Cleveland Center
Mon 04:11:21 PM 42.4000 -83.5675 16° North 274 315 13,200 1,918 Climbing Cleveland Center
Mon 04:12:23 PM 42.4822 -83.5353 16° North 288 331 15,000 919 Climbing Cleveland Center
Mon 04:13:25 PM 42.5611 -83.5050 16° North 293 337 15,100 48 Climbing Cleveland Center
Mon 04:14:27 PM 42.6381 -83.4758 16° North 288 331 15,100  Level Cleveland Center
Mon 04:15:29 PM 42.7286 -83.4408 16° North 283 326 15,100  Level Cleveland Center
Mon 04:16:31 PM 42.8061 -83.4092 17° North 288 331 15,100  Level Cleveland Center
Mon 04:17:33 PM 42.8822 -83.3783 17° North 287 330 15,100  Level Cleveland Center
Mon 04:18:35 PM 42.9586 -83.3653 North 278 320 15,100 -48 Level Cleveland Center
Mon 04:19:37 PM 43.0331 -83.3669 359° North 269 310 15,000 -48 Descending Cleveland Center
Mon 04:20:39 PM 43.1008 -83.3947 343° North 281 323 15,000  Level Cleveland Center
Mon 04:21:42 PM 43.1544 -83.4856 309° West 258 297 15,000  Level Cleveland Center
Mon 04:22:44 PM 43.2008 -83.5597 311° West 258 297 15,000  Level Cleveland Center
Mon 04:23:46 PM 43.2481 -83.6317 312° West 256 295 15,000  Level Cleveland Center
Mon 04:24:48 PM 43.2933 -83.7019 312° West 250 288 15,000  Level Cleveland Center
Mon 04:25:50 PM 43.3389 -83.7731 311° West 248 285 15,000  Level Cleveland Center
Mon 04:26:52 PM 43.3944 -83.8600 311° West 252 290 15,000  Level Cleveland Center
Mon 04:27:31 PM 43.4239 -83.9072 311° West 254 292 15,000  Level Minneapolis Center
Mon 04:28:33 PM 43.4719 -83.9831 311° West 260 299 15,000 96 Level Minneapolis Center
Mon 04:29:36 PM 43.5181 -84.0569 311° West 257 296 15,200 96 Climbing Minneapolis Center
Mon 04:30:38 PM 43.5950 -84.0567 360° North 282 325 15,200  Level Minneapolis Center
Mon 04:31:40 PM 43.6725 -84.0308 14° North 286 329 15,200  Level Minneapolis Center
Mon 04:32:42 PM 43.7508 -84.0053 13° North 289 333 15,200  Level Minneapolis Center
Mon 04:33:44 PM 43.8450 -83.9728 14° North 291 335 15,200  Level Minneapolis Center
Mon 04:34:46 PM 43.9244 -83.9406 16° North 295 339 15,200  Level Minneapolis Center
Mon 04:35:48 PM 44.0117 -83.9067 16° North 297 342 15,200  Level Minneapolis Center
Mon 04:36:50 PM 44.0900 -83.8747 16° North 296 341 15,200 -484 Level Minneapolis Center
Mon 04:37:52 PM 44.1742 -83.8417 16° North 294 338 14,200 -1,210 Descending Minneapolis Center
Mon 04:38:54 PM 44.2481 -83.8106 17° North 283 326 12,700 -1,500 Descending Minneapolis Center
Mon 04:39:56 PM 44.3236 -83.7806 16° North 266 306 11,100 -1,500 Descending Minneapolis Center
Mon 04:40:58 PM 44.3947 -83.7525 16° North 268 308 9,600 -1,597 Descending Minneapolis Center
Mon 04:42:00 PM 44.4672 -83.7225 16° North 256 295 7,800 -1,597 Descending Minneapolis Center
Mon 04:43:02 PM 44.5325 -83.6953 17° North 248 285 6,300 -1,500 Descending Minneapolis Center
Mon 04:44:04 PM 44.6003 -83.6669 17° North 240 276 4,700 -1,104 Descending Minneapolis Center
Mon 04:45:07 PM 44.6636 -83.6417 16° North 227 261 4,000 -336 Descending Minneapolis Center
Mon 04:46:09 PM 44.7161 -83.6206 16° North 203 234 4,000 -242 Level Minneapolis Center
Mon 04:47:11 PM 44.7650 -83.5997 17° North 174 200 3,500 -339 Descending Minneapolis Center
Mon 04:48:13 PM 44.8072 -83.5819 17° North 159 183 3,300 -97 Descending Minneapolis Center
Mon 04:49:15 PM 44.8603 -83.5617 15° North 178 205 3,300  Level Minneapolis Center
Mon 04:50:17 PM 44.9053 -83.5597 North 166 191 3,300  Level Minneapolis Center
Mon 04:51:19 PM 44.9503 -83.5597 360° North 155 178 3,300 -484 Level Minneapolis Center
Mon 04:52:21 PM 44.9889 -83.5606 359° North 145 167 2,300 -919 Descending Minneapolis Center
Mon 04:53:23 PM 45.0272 -83.5606 360° North 134 154 1,400 -823 Descending Minneapolis Center
Mon 04:54:25 PM 45.0656 -83.5608 360° North 130 150 600 -387 Descending Minneapolis Center
Mon 04:55:27 PM 45.0981 -83.5617 359° North 131 151 600  Level Minneapolis Center

Login

Don't have an account? Register now (free) for customized features, flight alerts, and more!